sensor_id;sensor_type;location;lat;lon;timestamp;pressure;altitude;pressure_sealevel;temperature;humidity
3132;BME280;62090;52.330;9.104;2023-02-17T00:01:58;101275.13;;;9.76;100.00
3132;BME280;62090;52.330;9.104;2023-02-17T00:04:28;101278.16;;;9.90;100.00
3132;BME280;62090;52.330;9.104;2023-02-17T00:07:01;101199.41;;;9.47;100.00
3132;BME280;62090;52.330;9.104;2023-02-17T00:09:30;101286.06;;;9.97;100.00
3132;BME280;62090;52.330;9.104;2023-02-17T00:12:00;101274.31;;;10.01;100.00
3132;BME280;62090;52.330;9.104;2023-02-17T00:14:29;101272.53;;;9.98;100.00
3132;BME280;62090;52.330;9.104;2023-02-17T00:16:59;101272.75;;;10.04;100.00
3132;BME280;62090;52.330;9.104;2023-02-17T00:19:29;101264.53;;;9.88;100.00
3132;BME280;62090;52.330;9.104;2023-02-17T00:22:01;101242.75;;;9.72;100.00
3132;BME280;62090;52.330;9.104;2023-02-17T00:24:31;101271.44;;;9.92;100.00
3132;BME280;62090;52.330;9.104;2023-02-17T00:27:01;101275.88;;;9.97;100.00
3132;BME280;62090;52.330;9.104;2023-02-17T00:29:31;101220.19;;;9.59;100.00
3132;BME280;62090;52.330;9.104;2023-02-17T00:32:02;101200.94;;;9.65;100.00
3132;BME280;62090;52.330;9.104;2023-02-17T00:34:32;101258.00;;;9.96;100.00
3132;BME280;62090;52.330;9.104;2023-02-17T00:37:05;101252.91;;;9.96;100.00
3132;BME280;62090;52.330;9.104;2023-02-17T00:39:35;101267.75;;;10.07;100.00
3132;BME280;62090;52.330;9.104;2023-02-17T00:42:04;101265.28;;;10.10;100.00
3132;BME280;62090;52.330;9.104;2023-02-17T00:44:34;101274.28;;;10.23;100.00
3132;BME280;62090;52.330;9.104;2023-02-17T00:47:04;101255.94;;;10.09;100.00
3132;BME280;62090;52.330;9.104;2023-02-17T00:49:34;101273.19;;;10.16;100.00
3132;BME280;62090;52.330;9.104;2023-02-17T00:52:07;101234.19;;;9.94;100.00
3132;BME280;62090;52.330;9.104;2023-02-17T00:54:37;101244.91;;;10.09;100.00
3132;BME280;62090;52.330;9.104;2023-02-17T00:57:10;101248.34;;;10.11;100.00
3132;BME280;62090;52.330;9.104;2023-02-17T00:59:39;101252.56;;;10.10;100.00
3132;BME280;62090;52.330;9.104;2023-02-17T01:02:09;101264.09;;;10.23;100.00
3132;BME280;62090;52.330;9.104;2023-02-17T01:04:39;101255.47;;;10.20;100.00
3132;BME280;62090;52.330;9.104;2023-02-17T01:07:11;101259.06;;;10.25;100.00
3132;BME280;62090;52.330;9.104;2023-02-17T01:09:41;101254.81;;;10.25;100.00
3132;BME280;62090;52.330;9.104;2023-02-17T01:12:11;101227.09;;;10.10;100.00
3132;BME280;62090;52.330;9.104;2023-02-17T01:14:40;101253.25;;;10.29;100.00
3132;BME280;62090;52.330;9.104;2023-02-17T01:17:10;101234.31;;;10.22;100.00
3132;BME280;62090;52.330;9.104;2023-02-17T01:19:40;101239.56;;;10.27;100.00
3132;BME280;62090;52.330;9.104;2023-02-17T01:22:12;101251.72;;;10.34;100.00
3132;BME280;62090;52.330;9.104;2023-02-17T01:24:42;101214.56;;;10.15;100.00
3132;BME280;62090;52.330;9.104;2023-02-17T01:27:11;101228.50;;;10.25;100.00
3132;BME280;62090;52.330;9.104;2023-02-17T01:29:43;101242.44;;;10.36;100.00
3132;BME280;62090;52.330;9.104;2023-02-17T01:32:13;101232.34;;;10.39;100.00
3132;BME280;62090;52.330;9.104;2023-02-17T01:34:42;101211.56;;;10.27;100.00
3132;BME280;62090;52.330;9.104;2023-02-17T01:37:15;101185.03;;;10.20;100.00
3132;BME280;62090;52.330;9.104;2023-02-17T01:39:44;101204.50;;;10.18;100.00
3132;BME280;62090;52.330;9.104;2023-02-17T01:42:15;101160.72;;;10.04;100.00
3132;BME280;62090;52.330;9.104;2023-02-17T01:47:50;101206.06;;;10.40;100.00
3132;BME280;62090;52.330;9.104;2023-02-17T01:50:25;101187.16;;;10.33;100.00
3132;BME280;62090;52.330;9.104;2023-02-17T01:53:01;101173.16;;;10.21;100.00
3132;BME280;62090;52.330;9.104;2023-02-17T01:55:34;101200.44;;;10.50;100.00
3132;BME280;62090;52.330;9.104;2023-02-17T01:58:06;101196.75;;;10.40;100.00
3132;BME280;62090;52.330;9.104;2023-02-17T02:00:37;101191.94;;;10.49;100.00
3132;BME280;62090;52.330;9.104;2023-02-17T02:03:09;101133.25;;;10.21;100.00
3132;BME280;62090;52.330;9.104;2023-02-17T02:05:41;101186.09;;;10.52;100.00
3132;BME280;62090;52.330;9.104;2023-02-17T02:08:14;101180.19;;;10.54;100.00
3132;BME280;62090;52.330;9.104;2023-02-17T02:10:44;101169.53;;;10.39;100.00
3132;BME280;62090;52.330;9.104;2023-02-17T02:13:13;101168.06;;;10.47;100.00
3132;BME280;62090;52.330;9.104;2023-02-17T02:15:47;101186.25;;;10.58;100.00
3132;BME280;62090;52.330;9.104;2023-02-17T02:18:30;101155.31;;;10.46;100.00
3132;BME280;62090;52.330;9.104;2023-02-17T02:21:17;101171.81;;;10.57;100.00
3132;BME280;62090;52.330;9.104;2023-02-17T02:24:19;101157.22;;;10.53;100.00
3132;BME280;62090;52.330;9.104;2023-02-17T02:27:12;101171.63;;;10.52;100.00
3132;BME280;62090;52.330;9.104;2023-02-17T02:30:02;101132.91;;;10.36;100.00
3132;BME280;62090;52.330;9.104;2023-02-17T02:32:56;101183.75;;;10.59;100.00
3132;BME280;62090;52.330;9.104;2023-02-17T02:35:33;101164.03;;;10.54;100.00
3132;BME280;62090;52.330;9.104;2023-02-17T02:38:11;101156.59;;;10.60;100.00
3132;BME280;62090;52.330;9.104;2023-02-17T02:40:45;101137.00;;;10.59;100.00
3132;BME280;62090;52.330;9.104;2023-02-17T02:43:16;101155.84;;;10.64;100.00
3132;BME280;62090;52.330;9.104;2023-02-17T02:45:46;101098.34;;;10.44;100.00
3132;BME280;62090;52.330;9.104;2023-02-17T02:48:21;101150.41;;;10.80;100.00
3132;BME280;62090;52.330;9.104;2023-02-17T02:51:06;101120.09;;;10.61;100.00
3132;BME280;62090;52.330;9.104;2023-02-17T02:56:50;101085.78;;;10.50;100.00
3132;BME280;62090;52.330;9.104;2023-02-17T02:59:32;101116.22;;;10.74;100.00
3132;BME280;62090;52.330;9.104;2023-02-17T03:02:07;101094.34;;;10.52;100.00
3132;BME280;62090;52.330;9.104;2023-02-17T03:04:50;101054.69;;;10.33;100.00
3132;BME280;62090;52.330;9.104;2023-02-17T03:07:26;101084.16;;;10.52;100.00
3132;BME280;62090;52.330;9.104;2023-02-17T03:09:58;101104.75;;;10.59;100.00
3132;BME280;62090;52.330;9.104;2023-02-17T03:12:29;101090.09;;;10.52;100.00
3132;BME280;62090;52.330;9.104;2023-02-17T03:15:01;101106.69;;;10.68;100.00
3132;BME280;62090;52.330;9.104;2023-02-17T03:17:32;101072.13;;;10.48;100.00
3132;BME280;62090;52.330;9.104;2023-02-17T03:20:07;101108.72;;;10.78;100.00
3132;BME280;62090;52.330;9.104;2023-02-17T03:22:39;101103.06;;;10.88;100.00
3132;BME280;62090;52.330;9.104;2023-02-17T03:25:10;101109.25;;;10.68;100.00
3132;BME280;62090;52.330;9.104;2023-02-17T03:27:41;101118.94;;;10.78;100.00
3132;BME280;62090;52.330;9.104;2023-02-17T03:30:11;101117.22;;;10.79;100.00
3132;BME280;62090;52.330;9.104;2023-02-17T03:32:41;101111.31;;;10.80;100.00
3132;BME280;62090;52.330;9.104;2023-02-17T03:35:13;101096.78;;;10.77;100.00
3132;BME280;62090;52.330;9.104;2023-02-17T03:37:43;101099.03;;;10.67;100.00
3132;BME280;62090;52.330;9.104;2023-02-17T03:40:13;101093.81;;;10.62;100.00
3132;BME280;62090;52.330;9.104;2023-02-17T03:42:43;101081.41;;;10.46;100.00
3132;BME280;62090;52.330;9.104;2023-02-17T03:45:12;101051.28;;;10.33;100.00
3132;BME280;62090;52.330;9.104;2023-02-17T03:47:42;101094.28;;;10.50;100.00
3132;BME280;62090;52.330;9.104;2023-02-17T03:50:14;101089.25;;;10.52;100.00
3132;BME280;62090;52.330;9.104;2023-02-17T03:52:44;101087.72;;;10.57;100.00
3132;BME280;62090;52.330;9.104;2023-02-17T03:55:14;101088.38;;;10.51;100.00
3132;BME280;62090;52.330;9.104;2023-02-17T03:57:44;101099.22;;;10.73;100.00
3132;BME280;62090;52.330;9.104;2023-02-17T04:00:14;101080.28;;;10.65;100.00
3132;BME280;62090;52.330;9.104;2023-02-17T04:02:44;101081.63;;;10.82;100.00
3132;BME280;62090;52.330;9.104;2023-02-17T04:05:17;101070.50;;;10.80;100.00
3132;BME280;62090;52.330;9.104;2023-02-17T04:07:46;101072.25;;;10.81;100.00
3132;BME280;62090;52.330;9.104;2023-02-17T04:10:16;101062.69;;;10.74;100.00
3132;BME280;62090;52.330;9.104;2023-02-17T04:12:46;101074.66;;;10.76;100.00
3132;BME280;62090;52.330;9.104;2023-02-17T04:15:16;101073.63;;;10.70;100.00
3132;BME280;62090;52.330;9.104;2023-02-17T04:17:46;101080.44;;;10.71;100.00
3132;BME280;62090;52.330;9.104;2023-02-17T04:20:18;101057.38;;;10.66;100.00
3132;BME280;62090;52.330;9.104;2023-02-17T04:22:48;101089.97;;;10.76;100.00
3132;BME280;62090;52.330;9.104;2023-02-17T04:25:18;101047.56;;;10.50;100.00
3132;BME280;62090;52.330;9.104;2023-02-17T04:27:47;101082.38;;;10.78;100.00
3132;BME280;62090;52.330;9.104;2023-02-17T04:30:17;101091.88;;;10.83;100.00
3132;BME280;62090;52.330;9.104;2023-02-17T04:32:47;101058.31;;;10.70;100.00
3132;BME280;62090;52.330;9.104;2023-02-17T04:35:19;101049.09;;;10.73;100.00
3132;BME280;62090;52.330;9.104;2023-02-17T04:37:49;101057.75;;;10.78;100.00
3132;BME280;62090;52.330;9.104;2023-02-17T04:40:19;101055.84;;;10.71;100.00
3132;BME280;62090;52.330;9.104;2023-02-17T04:42:48;101042.09;;;10.66;100.00
3132;BME280;62090;52.330;9.104;2023-02-17T04:45:18;101049.94;;;10.74;100.00
3132;BME280;62090;52.330;9.104;2023-02-17T04:47:48;101047.25;;;10.69;100.00
3132;BME280;62090;52.330;9.104;2023-02-17T04:50:21;101048.31;;;10.76;100.00
3132;BME280;62090;52.330;9.104;2023-02-17T04:52:51;101050.09;;;10.78;100.00
3132;BME280;62090;52.330;9.104;2023-02-17T04:55:20;101012.03;;;10.54;100.00
3132;BME280;62090;52.330;9.104;2023-02-17T04:57:50;101040.63;;;10.74;100.00
3132;BME280;62090;52.330;9.104;2023-02-17T05:00:20;101040.09;;;10.86;100.00
3132;BME280;62090;52.330;9.104;2023-02-17T05:02:50;101016.47;;;10.91;100.00
3132;BME280;62090;52.330;9.104;2023-02-17T05:05:22;100988.06;;;10.79;100.00
3132;BME280;62090;52.330;9.104;2023-02-17T05:07:52;100972.28;;;10.61;100.00
3132;BME280;62090;52.330;9.104;2023-02-17T05:10:21;101022.47;;;10.93;100.00
3132;BME280;62090;52.330;9.104;2023-02-17T05:12:51;100977.56;;;10.67;100.00
3132;BME280;62090;52.330;9.104;2023-02-17T05:15:21;100998.53;;;10.88;100.00
3132;BME280;62090;52.330;9.104;2023-02-17T05:17:50;100978.69;;;10.77;100.00
3132;BME280;62090;52.330;9.104;2023-02-17T05:20:23;100970.22;;;10.79;100.00
3132;BME280;62090;52.330;9.104;2023-02-17T05:22:52;101001.50;;;11.04;100.00
3132;BME280;62090;52.330;9.104;2023-02-17T05:25:22;100999.88;;;11.07;100.00
3132;BME280;62090;52.330;9.104;2023-02-17T05:27:52;100978.44;;;10.99;100.00
3132;BME280;62090;52.330;9.104;2023-02-17T05:30:22;101000.69;;;11.05;100.00
3132;BME280;62090;52.330;9.104;2023-02-17T05:32:51;100959.91;;;10.75;100.00
3132;BME280;62090;52.330;9.104;2023-02-17T05:35:24;100963.44;;;10.78;100.00
3132;BME280;62090;52.330;9.104;2023-02-17T05:37:54;100989.22;;;10.90;100.00
3132;BME280;62090;52.330;9.104;2023-02-17T05:40:24;101006.63;;;11.05;100.00
3132;BME280;62090;52.330;9.104;2023-02-17T05:42:54;100991.84;;;10.92;100.00
3132;BME280;62090;52.330;9.104;2023-02-17T05:45:23;100998.16;;;11.06;100.00
3132;BME280;62090;52.330;9.104;2023-02-17T05:47:53;100997.56;;;11.16;100.00
3132;BME280;62090;52.330;9.104;2023-02-17T05:50:25;100985.84;;;11.23;100.00
3132;BME280;62090;52.330;9.104;2023-02-17T05:53:01;100970.97;;;11.07;100.00
3132;BME280;62090;52.330;9.104;2023-02-17T05:55:31;100961.75;;;11.12;100.00
3132;BME280;62090;52.330;9.104;2023-02-17T05:58:01;100978.13;;;11.20;100.00
3132;BME280;62090;52.330;9.104;2023-02-17T06:00:30;100967.81;;;11.15;100.00
3132;BME280;62090;52.330;9.104;2023-02-17T06:03:00;100950.34;;;10.97;100.00
3132;BME280;62090;52.330;9.104;2023-02-17T06:05:32;100983.84;;;11.11;100.00
3132;BME280;62090;52.330;9.104;2023-02-17T06:08:02;100978.84;;;11.16;100.00
3132;BME280;62090;52.330;9.104;2023-02-17T06:10:32;100967.84;;;10.85;100.00
3132;BME280;62090;52.330;9.104;2023-02-17T06:13:02;100969.75;;;10.92;100.00
3132;BME280;62090;52.330;9.104;2023-02-17T06:15:31;100950.00;;;10.85;100.00
3132;BME280;62090;52.330;9.104;2023-02-17T06:18:01;100965.53;;;10.94;100.00
3132;BME280;62090;52.330;9.104;2023-02-17T06:20:33;100964.41;;;11.15;100.00
3132;BME280;62090;52.330;9.104;2023-02-17T06:23:03;100963.53;;;11.16;100.00
3132;BME280;62090;52.330;9.104;2023-02-17T06:25:33;100969.59;;;11.19;100.00
3132;BME280;62090;52.330;9.104;2023-02-17T06:28:03;100974.78;;;11.22;100.00
3132;BME280;62090;52.330;9.104;2023-02-17T06:30:33;100961.25;;;11.25;100.00
3132;BME280;62090;52.330;9.104;2023-02-17T06:33:03;100960.16;;;11.17;100.00
3132;BME280;62090;52.330;9.104;2023-02-17T06:35:35;100941.34;;;11.12;100.00
3132;BME280;62090;52.330;9.104;2023-02-17T06:38:05;100980.75;;;11.23;100.00
3132;BME280;62090;52.330;9.104;2023-02-17T06:40:35;100979.00;;;11.20;100.00
3132;BME280;62090;52.330;9.104;2023-02-17T06:43:05;100968.63;;;11.14;100.00
3132;BME280;62090;52.330;9.104;2023-02-17T06:45:34;100971.25;;;11.17;100.00
3132;BME280;62090;52.330;9.104;2023-02-17T06:48:04;100968.09;;;11.27;100.00
3132;BME280;62090;52.330;9.104;2023-02-17T06:50:37;100960.34;;;11.23;100.00
3132;BME280;62090;52.330;9.104;2023-02-17T06:53:07;100944.88;;;11.17;100.00
3132;BME280;62090;52.330;9.104;2023-02-17T06:55:36;100976.72;;;11.31;100.00
3132;BME280;62090;52.330;9.104;2023-02-17T06:58:06;100978.34;;;11.29;100.00
3132;BME280;62090;52.330;9.104;2023-02-17T07:00:36;100975.03;;;11.31;100.00
3132;BME280;62090;52.330;9.104;2023-02-17T07:03:05;100981.56;;;11.22;100.00
3132;BME280;62090;52.330;9.104;2023-02-17T07:05:38;100976.63;;;11.28;100.00
3132;BME280;62090;52.330;9.104;2023-02-17T07:08:08;100953.75;;;11.31;100.00
3132;BME280;62090;52.330;9.104;2023-02-17T07:10:38;100943.53;;;11.31;100.00
3132;BME280;62090;52.330;9.104;2023-02-17T07:13:07;100952.06;;;11.31;100.00
3132;BME280;62090;52.330;9.104;2023-02-17T07:15:37;100938.94;;;11.18;100.00
3132;BME280;62090;52.330;9.104;2023-02-17T07:18:08;100941.66;;;11.24;100.00
3132;BME280;62090;52.330;9.104;2023-02-17T07:20:41;100951.94;;;11.27;100.00
3132;BME280;62090;52.330;9.104;2023-02-17T07:23:10;100922.66;;;11.13;100.00
3132;BME280;62090;52.330;9.104;2023-02-17T07:25:40;100920.94;;;11.10;100.00
3132;BME280;62090;52.330;9.104;2023-02-17T07:28:09;100918.28;;;11.07;100.00
3132;BME280;62090;52.330;9.104;2023-02-17T07:30:40;100929.34;;;11.08;100.00
3132;BME280;62090;52.330;9.104;2023-02-17T07:33:10;100911.59;;;11.12;100.00
3132;BME280;62090;52.330;9.104;2023-02-17T07:35:43;100926.41;;;11.25;100.00
3132;BME280;62090;52.330;9.104;2023-02-17T07:38:12;100906.59;;;11.17;100.00
3132;BME280;62090;52.330;9.104;2023-02-17T07:40:42;100924.94;;;11.35;100.00
3132;BME280;62090;52.330;9.104;2023-02-17T07:43:12;100889.63;;;11.17;100.00
3132;BME280;62090;52.330;9.104;2023-02-17T07:45:43;100919.88;;;11.38;100.00
3132;BME280;62090;52.330;9.104;2023-02-17T07:48:13;100861.16;;;11.00;100.00
3132;BME280;62090;52.330;9.104;2023-02-17T07:50:45;100924.63;;;11.23;100.00
3132;BME280;62090;52.330;9.104;2023-02-17T07:53:15;100932.63;;;11.36;100.00
3132;BME280;62090;52.330;9.104;2023-02-17T07:55:44;100923.91;;;11.28;100.00
3132;BME280;62090;52.330;9.104;2023-02-17T07:58:14;100916.16;;;11.24;100.00
3132;BME280;62090;52.330;9.104;2023-02-17T08:00:45;100918.03;;;11.31;100.00
3132;BME280;62090;52.330;9.104;2023-02-17T08:03:14;100935.13;;;11.35;100.00
3132;BME280;62090;52.330;9.104;2023-02-17T08:05:47;100925.03;;;11.39;100.00
3132;BME280;62090;52.330;9.104;2023-02-17T08:08:18;100919.00;;;11.36;100.00
3132;BME280;62090;52.330;9.104;2023-02-17T08:11:01;100918.09;;;11.34;100.00
3132;BME280;62090;52.330;9.104;2023-02-17T08:13:43;100926.56;;;11.33;100.00
3132;BME280;62090;52.330;9.104;2023-02-17T08:16:13;100926.69;;;11.37;100.00
3132;BME280;62090;52.330;9.104;2023-02-17T08:18:43;100932.75;;;11.42;100.00
3132;BME280;62090;52.330;9.104;2023-02-17T08:21:15;100918.41;;;11.46;100.00
3132;BME280;62090;52.330;9.104;2023-02-17T08:23:45;100912.19;;;11.35;100.00
3132;BME280;62090;52.330;9.104;2023-02-17T08:26:14;100908.19;;;11.46;100.00
3132;BME280;62090;52.330;9.104;2023-02-17T08:28:44;100903.75;;;11.39;100.00
3132;BME280;62090;52.330;9.104;2023-02-17T08:31:15;100870.19;;;11.21;100.00
3132;BME280;62090;52.330;9.104;2023-02-17T08:33:45;100886.34;;;11.23;100.00
3132;BME280;62090;52.330;9.104;2023-02-17T08:36:19;100897.88;;;11.43;100.00
3132;BME280;62090;52.330;9.104;2023-02-17T08:38:49;100894.41;;;11.39;100.00
3132;BME280;62090;52.330;9.104;2023-02-17T08:41:21;100886.75;;;11.39;100.00
3132;BME280;62090;52.330;9.104;2023-02-17T08:43:51;100843.47;;;11.07;100.00
3132;BME280;62090;52.330;9.104;2023-02-17T08:46:21;100889.38;;;11.42;100.00
3132;BME280;62090;52.330;9.104;2023-02-17T08:48:51;100875.75;;;11.42;100.00
3132;BME280;62090;52.330;9.104;2023-02-17T08:51:24;100880.75;;;11.36;100.00
3132;BME280;62090;52.330;9.104;2023-02-17T08:53:56;100865.28;;;11.30;100.00
3132;BME280;62090;52.330;9.104;2023-02-17T08:56:27;100865.44;;;11.36;100.00
3132;BME280;62090;52.330;9.104;2023-02-17T08:58:57;100862.97;;;11.40;100.00
3132;BME280;62090;52.330;9.104;2023-02-17T09:01:27;100863.59;;;11.32;100.00
3132;BME280;62090;52.330;9.104;2023-02-17T09:03:58;100855.00;;;11.27;100.00
3132;BME280;62090;52.330;9.104;2023-02-17T09:06:35;100854.00;;;11.20;100.00
3132;BME280;62090;52.330;9.104;2023-02-17T09:09:07;100884.25;;;11.41;100.00
3132;BME280;62090;52.330;9.104;2023-02-17T09:11:37;100898.72;;;11.42;100.00
3132;BME280;62090;52.330;9.104;2023-02-17T09:14:07;100887.63;;;11.40;100.00
3132;BME280;62090;52.330;9.104;2023-02-17T09:16:37;100873.13;;;11.39;100.00
3132;BME280;62090;52.330;9.104;2023-02-17T09:19:07;100876.50;;;11.36;100.00
3132;BME280;62090;52.330;9.104;2023-02-17T09:21:39;100880.94;;;11.45;100.00
3132;BME280;62090;52.330;9.104;2023-02-17T09:24:09;100897.13;;;11.46;100.00
3132;BME280;62090;52.330;9.104;2023-02-17T09:26:39;100902.38;;;11.53;100.00
3132;BME280;62090;52.330;9.104;2023-02-17T09:29:09;100894.63;;;11.49;100.00
3132;BME280;62090;52.330;9.104;2023-02-17T09:31:39;100907.56;;;11.56;100.00
3132;BME280;62090;52.330;9.104;2023-02-17T09:34:11;100894.66;;;11.50;100.00
3132;BME280;62090;52.330;9.104;2023-02-17T09:36:43;100886.19;;;11.53;100.00
3132;BME280;62090;52.330;9.104;2023-02-17T09:39:13;100901.25;;;11.42;100.00
3132;BME280;62090;52.330;9.104;2023-02-17T09:41:45;100910.03;;;11.52;100.00
3132;BME280;62090;52.330;9.104;2023-02-17T09:44:20;100896.91;;;11.36;100.00
3132;BME280;62090;52.330;9.104;2023-02-17T09:46:56;100881.50;;;11.33;100.00
3132;BME280;62090;52.330;9.104;2023-02-17T09:49:33;100894.00;;;11.57;100.00
3132;BME280;62090;52.330;9.104;2023-02-17T09:52:11;100907.72;;;11.64;100.00
3132;BME280;62090;52.330;9.104;2023-02-17T09:54:50;100912.88;;;11.65;100.00
3132;BME280;62090;52.330;9.104;2023-02-17T09:57:27;100909.47;;;11.65;100.00
3132;BME280;62090;52.330;9.104;2023-02-17T10:00:00;100893.06;;;11.55;100.00
3132;BME280;62090;52.330;9.104;2023-02-17T10:02:39;100894.03;;;11.60;100.00
3132;BME280;62090;52.330;9.104;2023-02-17T10:05:14;100877.63;;;11.49;100.00
3132;BME280;62090;52.330;9.104;2023-02-17T10:07:51;100873.63;;;11.60;100.00
3132;BME280;62090;52.330;9.104;2023-02-17T10:10:26;100892.41;;;11.62;100.00
3132;BME280;62090;52.330;9.104;2023-02-17T10:12:59;100887.31;;;11.64;100.00
3132;BME280;62090;52.330;9.104;2023-02-17T10:15:34;100864.09;;;11.53;100.00
3132;BME280;62090;52.330;9.104;2023-02-17T10:18:10;100824.53;;;11.33;100.00
3132;BME280;62090;52.330;9.104;2023-02-17T10:20:46;100892.72;;;11.76;100.00
3132;BME280;62090;52.330;9.104;2023-02-17T10:23:22;100865.38;;;11.72;100.00
3132;BME280;62090;52.330;9.104;2023-02-17T10:26:15;100877.28;;;11.71;100.00
3132;BME280;62090;52.330;9.104;2023-02-17T10:28:50;100868.88;;;11.75;100.00
3132;BME280;62090;52.330;9.104;2023-02-17T10:31:30;100850.84;;;11.69;100.00
3132;BME280;62090;52.330;9.104;2023-02-17T10:34:11;100863.13;;;11.85;100.00
3132;BME280;62090;52.330;9.104;2023-02-17T10:36:49;100835.69;;;11.75;100.00
3132;BME280;62090;52.330;9.104;2023-02-17T10:39:36;100861.63;;;11.94;100.00
3132;BME280;62090;52.330;9.104;2023-02-17T10:42:13;100806.19;;;11.88;100.00
3132;BME280;62090;52.330;9.104;2023-02-17T10:44:45;100825.34;;;12.10;100.00
3132;BME280;62090;52.330;9.104;2023-02-17T10:47:17;100831.53;;;12.21;100.00
3132;BME280;62090;52.330;9.104;2023-02-17T10:49:49;100804.66;;;12.43;100.00
3132;BME280;62090;52.330;9.104;2023-02-17T10:52:21;100802.88;;;12.39;100.00
3132;BME280;62090;52.330;9.104;2023-02-17T10:54:56;100809.13;;;12.53;100.00
3132;BME280;62090;52.330;9.104;2023-02-17T10:57:49;100793.66;;;12.47;100.00
3132;BME280;62090;52.330;9.104;2023-02-17T11:00:21;100810.97;;;12.61;100.00
3132;BME280;62090;52.330;9.104;2023-02-17T11:02:52;100811.84;;;12.63;100.00
3132;BME280;62090;52.330;9.104;2023-02-17T11:05:24;100826.53;;;12.74;100.00
3132;BME280;62090;52.330;9.104;2023-02-17T11:07:56;100809.56;;;12.80;100.00
3132;BME280;62090;52.330;9.104;2023-02-17T11:10:33;100789.72;;;12.65;100.00
3132;BME280;62090;52.330;9.104;2023-02-17T11:13:26;100791.81;;;12.91;100.00
3132;BME280;62090;52.330;9.104;2023-02-17T11:15:57;100774.81;;;12.93;100.00
3132;BME280;62090;52.330;9.104;2023-02-17T11:18:29;100769.09;;;13.09;100.00
3132;BME280;62090;52.330;9.104;2023-02-17T11:21:03;100798.19;;;13.14;100.00
3132;BME280;62090;52.330;9.104;2023-02-17T11:23:34;100775.75;;;12.98;100.00
3132;BME280;62090;52.330;9.104;2023-02-17T11:26:17;100771.59;;;13.06;99.68
3132;BME280;62090;52.330;9.104;2023-02-17T11:28:46;100815.28;;;13.17;100.00
3132;BME280;62090;52.330;9.104;2023-02-17T11:31:23;100751.66;;;12.84;100.00
3132;BME280;62090;52.330;9.104;2023-02-17T11:33:55;100738.81;;;12.81;100.00
3132;BME280;62090;52.330;9.104;2023-02-17T11:36:26;100774.13;;;13.03;100.00
3132;BME280;62090;52.330;9.104;2023-02-17T11:38:58;100776.53;;;12.94;100.00
3132;BME280;62090;52.330;9.104;2023-02-17T11:41:39;100778.47;;;13.08;100.00
3132;BME280;62090;52.330;9.104;2023-02-17T11:44:09;100740.50;;;12.79;100.00
3132;BME280;62090;52.330;9.104;2023-02-17T11:46:45;100782.00;;;13.15;99.27
3132;BME280;62090;52.330;9.104;2023-02-17T11:52:36;100776.06;;;13.16;99.12
3132;BME280;62090;52.330;9.104;2023-02-17T11:55:17;100726.41;;;13.06;99.16
3132;BME280;62090;52.330;9.104;2023-02-17T11:58:03;100750.47;;;13.16;98.36
3132;BME280;62090;52.330;9.104;2023-02-17T12:00:42;100742.84;;;13.19;98.43
3132;BME280;62090;52.330;9.104;2023-02-17T12:03:28;100743.78;;;13.26;97.16
3132;BME280;62090;52.330;9.104;2023-02-17T12:06:07;100778.91;;;13.39;96.63
3132;BME280;62090;52.330;9.104;2023-02-17T12:08:59;100791.78;;;13.43;96.27
3132;BME280;62090;52.330;9.104;2023-02-17T12:11:39;100741.06;;;13.15;97.03
3132;BME280;62090;52.330;9.104;2023-02-17T12:14:31;100802.94;;;13.48;95.90
3132;BME280;62090;52.330;9.104;2023-02-17T12:17:05;100787.66;;;13.54;95.40
3132;BME280;62090;52.330;9.104;2023-02-17T12:19:49;100791.97;;;13.57;94.81
3132;BME280;62090;52.330;9.104;2023-02-17T12:22:25;100800.38;;;13.48;95.34
3132;BME280;62090;52.330;9.104;2023-02-17T12:28:04;100807.06;;;13.39;94.95
3132;BME280;62090;52.330;9.104;2023-02-17T12:30:52;100819.00;;;13.37;94.44
3132;BME280;62090;52.330;9.104;2023-02-17T12:33:37;100822.38;;;13.34;95.35
3132;BME280;62090;52.330;9.104;2023-02-17T12:36:14;100765.81;;;13.16;95.68
3132;BME280;62090;52.330;9.104;2023-02-17T12:38:48;100811.41;;;13.41;96.18
3132;BME280;62090;52.330;9.104;2023-02-17T12:41:24;100807.84;;;13.33;96.36
3132;BME280;62090;52.330;9.104;2023-02-17T12:43:58;100795.94;;;13.35;95.15
3132;BME280;62090;52.330;9.104;2023-02-17T12:46:37;100804.56;;;13.43;95.28
3132;BME280;62090;52.330;9.104;2023-02-17T12:49:11;100774.56;;;13.33;94.23
3132;BME280;62090;52.330;9.104;2023-02-17T12:51:46;100786.66;;;13.42;94.60
3132;BME280;62090;52.330;9.104;2023-02-17T12:54:21;100812.41;;;13.54;94.57
3132;BME280;62090;52.330;9.104;2023-02-17T12:57:04;100799.53;;;13.49;94.14
3132;BME280;62090;52.330;9.104;2023-02-17T12:59:38;100791.72;;;13.37;95.00
3132;BME280;62090;52.330;9.104;2023-02-17T13:02:13;100795.97;;;13.38;95.22
3132;BME280;62090;52.330;9.104;2023-02-17T13:04:44;100777.84;;;13.22;95.19
3132;BME280;62090;52.330;9.104;2023-02-17T13:07:38;100789.09;;;13.34;94.84
3132;BME280;62090;52.330;9.104;2023-02-17T13:10:28;100795.91;;;13.32;95.74
3132;BME280;62090;52.330;9.104;2023-02-17T13:13:01;100802.72;;;13.33;96.17
3132;BME280;62090;52.330;9.104;2023-02-17T13:15:37;100820.72;;;13.36;96.39
3132;BME280;62090;52.330;9.104;2023-02-17T13:18:26;100817.22;;;13.31;98.25
3132;BME280;62090;52.330;9.104;2023-02-17T13:20:58;100831.59;;;13.23;100.00
3132;BME280;62090;52.330;9.104;2023-02-17T13:23:32;100816.53;;;12.89;100.00
3132;BME280;62090;52.330;9.104;2023-02-17T13:29:09;100859.47;;;13.08;100.00
3132;BME280;62090;52.330;9.104;2023-02-17T13:31:45;100876.53;;;13.09;100.00
3132;BME280;62090;52.330;9.104;2023-02-17T13:34:30;100877.34;;;13.05;100.00
3132;BME280;62090;52.330;9.104;2023-02-17T13:37:13;100861.75;;;12.90;100.00
3132;BME280;62090;52.330;9.104;2023-02-17T13:39:44;100865.78;;;12.77;100.00